createdAt,value
2018-11-05T00:01:06.603Z,9.40
2018-11-05T00:03:34.933Z,9.40
2018-11-05T00:06:03.228Z,9.40
2018-11-05T00:08:31.601Z,9.40
2018-11-05T00:10:59.897Z,9.30
2018-11-05T00:13:28.209Z,9.30
2018-11-05T00:15:56.535Z,9.30
2018-11-05T00:18:24.820Z,9.20
2018-11-05T00:20:53.118Z,9.20
2018-11-05T00:23:21.480Z,9.10
2018-11-05T00:25:49.797Z,9.10
2018-11-05T00:28:18.077Z,9.10
2018-11-05T00:30:46.368Z,9.00
2018-11-05T00:33:14.673Z,9.00
2018-11-05T00:35:43.138Z,8.90
2018-11-05T00:38:11.428Z,8.90
2018-11-05T00:40:39.729Z,8.80
2018-11-05T00:43:07.988Z,8.80
2018-11-05T00:45:36.343Z,8.70
2018-11-05T00:48:04.629Z,8.70
2018-11-05T00:50:32.902Z,8.70
2018-11-05T00:53:01.255Z,8.70
2018-11-05T00:55:29.548Z,8.70
2018-11-05T00:57:57.801Z,8.70
2018-11-05T01:00:26.075Z,8.70
2018-11-05T01:02:54.344Z,8.70
2018-11-05T01:05:22.686Z,8.60
2018-11-05T01:07:51.005Z,8.60
2018-11-05T01:10:19.268Z,8.50
2018-11-05T01:12:47.535Z,8.50
2018-11-05T01:15:17.112Z,8.40
2018-11-05T01:17:45.428Z,8.40
2018-11-05T01:20:14.748Z,8.40
2018-11-05T01:22:43.651Z,8.40
2018-11-05T01:25:12.042Z,8.40
2018-11-05T01:27:40.456Z,8.50
2018-11-05T01:30:11.829Z,8.50
2018-11-05T01:32:40.165Z,8.50
2018-11-05T01:35:09.761Z,8.60
2018-11-05T01:37:38.080Z,8.60
2018-11-05T01:40:08.232Z,8.70
2018-11-05T01:42:36.663Z,8.70
2018-11-05T01:45:05.846Z,8.80
2018-11-05T01:47:34.152Z,8.80
2018-11-05T01:50:02.582Z,8.90
2018-11-05T01:52:30.850Z,8.90
2018-11-05T01:54:59.156Z,9.00
2018-11-05T01:57:27.461Z,9.00
2018-11-05T01:59:55.756Z,9.00
2018-11-05T02:02:24.021Z,9.10
2018-11-05T02:04:52.337Z,9.20
2018-11-05T02:07:20.616Z,9.20
2018-11-05T02:09:48.887Z,9.20
2018-11-05T02:12:17.169Z,9.20
2018-11-05T02:14:45.433Z,9.30
2018-11-05T02:17:13.721Z,9.30
2018-11-05T02:19:42.828Z,9.30
2018-11-05T02:22:11.338Z,9.30
2018-11-05T02:24:39.621Z,9.30
2018-11-05T02:27:07.935Z,9.40
2018-11-05T02:29:36.168Z,9.40
2018-11-05T02:34:39.081Z,9.30
2018-11-05T02:37:07.337Z,9.30
2018-11-05T02:39:35.600Z,9.40
2018-11-05T02:42:03.897Z,9.40
2018-11-05T02:44:32.174Z,9.40
2018-11-05T02:47:00.488Z,9.40
2018-11-05T02:49:28.755Z,9.40
2018-11-05T02:51:57.038Z,9.40
2018-11-05T02:54:25.301Z,9.50
2018-11-05T02:56:53.560Z,9.50
2018-11-05T02:59:21.833Z,9.50
2018-11-05T03:01:50.157Z,9.50
2018-11-05T03:04:18.428Z,9.50
2018-11-05T03:06:46.777Z,9.50
2018-11-05T03:09:15.080Z,9.60
2018-11-05T03:11:43.356Z,9.60
2018-11-05T03:14:11.609Z,9.60
2018-11-05T03:16:39.916Z,9.70
2018-11-05T03:19:08.170Z,9.70
2018-11-05T03:21:36.429Z,9.60
2018-11-05T03:24:04.808Z,9.60
2018-11-05T03:26:33.189Z,9.60
2018-11-05T03:29:02.486Z,9.60
2018-11-05T03:31:30.725Z,9.60
2018-11-05T03:33:59.018Z,9.60
2018-11-05T03:36:27.261Z,9.60
2018-11-05T03:38:55.513Z,9.70
2018-11-05T03:41:23.802Z,9.70
2018-11-05T03:43:58.732Z,9.70
2018-11-05T03:46:26.997Z,9.70
2018-11-05T03:48:55.551Z,9.70
2018-11-05T03:51:23.837Z,9.70
2018-11-05T03:53:52.112Z,9.70
2018-11-05T03:56:20.549Z,9.70
2018-11-05T03:58:48.705Z,9.70
2018-11-05T04:01:16.997Z,9.70
2018-11-05T04:03:45.339Z,9.70
2018-11-05T04:06:13.686Z,9.70
2018-11-05T04:08:41.999Z,9.70
2018-11-05T04:11:10.286Z,9.70
2018-11-05T04:13:38.607Z,9.70
2018-11-05T04:16:07.018Z,9.70
2018-11-05T04:18:35.273Z,9.70
2018-11-05T04:21:03.620Z,9.70
2018-11-05T04:23:31.934Z,9.70
2018-11-05T04:26:00.353Z,9.70
2018-11-05T04:28:28.904Z,9.70
2018-11-05T04:30:57.173Z,9.70
2018-11-05T04:33:25.461Z,9.70
2018-11-05T04:35:53.765Z,9.80
2018-11-05T04:38:22.044Z,9.80
2018-11-05T04:40:50.320Z,9.80
2018-11-05T04:43:18.657Z,9.80
2018-11-05T04:45:46.968Z,9.80
2018-11-05T04:48:15.292Z,9.80
2018-11-05T04:50:43.624Z,9.90
2018-11-05T04:53:11.967Z,9.90
2018-11-05T04:55:40.336Z,9.90
2018-11-05T04:58:08.718Z,9.90
2018-11-05T05:00:37.077Z,9.90
2018-11-05T05:03:05.425Z,9.90
2018-11-05T05:05:33.749Z,9.90
2018-11-05T05:08:02.096Z,9.90
2018-11-05T05:10:30.423Z,9.90
2018-11-05T05:12:58.749Z,9.90
2018-11-05T05:15:27.031Z,9.90
2018-11-05T05:17:55.309Z,9.90
2018-11-05T05:20:23.678Z,9.90
2018-11-05T05:22:52.138Z,9.90
2018-11-05T05:25:20.309Z,9.90
2018-11-05T05:27:48.625Z,9.90
2018-11-05T05:30:18.140Z,9.90
2018-11-05T05:32:47.393Z,9.90
2018-11-05T05:35:16.276Z,10.00
2018-11-05T05:37:44.589Z,9.90
2018-11-05T05:40:12.995Z,9.90
2018-11-05T05:42:41.456Z,9.90
2018-11-05T05:45:10.978Z,9.90
2018-11-05T05:47:39.352Z,10.00
2018-11-05T05:50:10.316Z,10.00
2018-11-05T05:52:38.656Z,10.00
2018-11-05T05:55:07.529Z,10.00
2018-11-05T05:57:35.804Z,10.00
2018-11-05T06:00:04.192Z,10.00
2018-11-05T06:02:32.469Z,10.00
2018-11-05T06:05:00.750Z,10.00
2018-11-05T06:07:29.015Z,10.00
2018-11-05T06:09:57.329Z,10.00
2018-11-05T06:12:25.636Z,10.00
2018-11-05T06:14:53.902Z,10.10
2018-11-05T06:17:22.254Z,10.00
2018-11-05T06:19:50.520Z,10.00
2018-11-05T06:22:18.833Z,10.00
2018-11-05T06:24:47.140Z,10.00
2018-11-05T06:27:15.488Z,10.00
2018-11-05T06:29:43.785Z,10.00
2018-11-05T06:32:12.117Z,10.00
2018-11-05T06:34:40.448Z,10.00
2018-11-05T06:37:08.740Z,10.10
2018-11-05T06:39:37.053Z,10.10
2018-11-05T06:42:05.657Z,10.10
2018-11-05T06:44:34.008Z,10.10
2018-11-05T06:47:02.317Z,10.10
2018-11-05T06:49:30.571Z,10.10
2018-11-05T06:51:58.869Z,10.10
2018-11-05T06:54:27.169Z,10.10
2018-11-05T06:56:55.490Z,10.10
2018-11-05T06:59:23.804Z,10.10
2018-11-05T07:01:52.100Z,10.10
2018-11-05T07:04:20.448Z,10.10
2018-11-05T07:06:48.812Z,10.20
2018-11-05T07:09:17.075Z,10.20
2018-11-05T07:11:45.353Z,10.20
2018-11-05T07:14:13.684Z,10.30
2018-11-05T07:16:41.977Z,10.30
2018-11-05T07:19:10.646Z,10.30
2018-11-05T07:21:38.608Z,10.30
2018-11-05T07:24:06.906Z,10.40
2018-11-05T07:26:35.231Z,10.50
2018-11-05T07:29:03.588Z,10.50
2018-11-05T07:31:31.896Z,10.50
2018-11-05T07:34:00.446Z,10.50
2018-11-05T07:36:28.573Z,10.50
2018-11-05T07:38:56.877Z,10.60
2018-11-05T07:41:25.194Z,10.60
2018-11-05T07:43:53.463Z,10.60
2018-11-05T07:46:21.930Z,10.60
2018-11-05T07:48:50.333Z,10.60
2018-11-05T07:51:18.693Z,10.60
2018-11-05T07:53:47.027Z,10.70
2018-11-05T07:56:15.400Z,10.70
2018-11-05T07:58:43.880Z,10.70
2018-11-05T08:01:12.408Z,10.80
2018-11-05T08:03:40.810Z,10.80
2018-11-05T08:06:09.242Z,10.80
2018-11-05T08:08:37.608Z,10.80
2018-11-05T08:11:05.982Z,10.90
2018-11-05T08:13:34.314Z,10.90
2018-11-05T08:16:02.595Z,10.90
2018-11-05T08:18:30.905Z,10.90
2018-11-05T08:20:59.268Z,10.90
2018-11-05T08:23:27.604Z,10.90
2018-11-05T08:25:55.993Z,11.00
2018-11-05T08:28:24.319Z,11.00
2018-11-05T08:30:52.592Z,11.10
2018-11-05T08:33:20.908Z,11.10
2018-11-05T08:35:49.215Z,11.10
2018-11-05T08:38:17.514Z,11.20
2018-11-05T08:40:45.820Z,11.20
2018-11-05T08:43:14.128Z,11.20
2018-11-05T08:45:42.473Z,11.20
2018-11-05T08:48:10.828Z,11.20
2018-11-05T08:50:39.116Z,11.20
2018-11-05T08:53:08.584Z,11.30
2018-11-05T08:55:36.892Z,11.30
2018-11-05T08:58:05.252Z,11.30
2018-11-05T09:00:38.968Z,11.30
2018-11-05T09:03:07.285Z,11.30
2018-11-05T09:05:35.634Z,11.30
2018-11-05T09:08:03.973Z,11.30
2018-11-05T09:10:32.382Z,11.30
2018-11-05T09:13:00.601Z,11.30
2018-11-05T09:15:28.936Z,11.30
2018-11-05T09:17:57.253Z,11.40
2018-11-05T09:20:25.605Z,11.30
2018-11-05T09:22:54.087Z,11.40
2018-11-05T09:25:22.427Z,11.40
2018-11-05T09:27:50.873Z,11.40
2018-11-05T09:30:20.689Z,11.40
2018-11-05T09:32:51.854Z,11.40
2018-11-05T09:35:20.256Z,11.50
2018-11-05T09:37:48.650Z,11.50
2018-11-05T09:40:22.258Z,11.60
2018-11-05T09:42:50.931Z,11.60
2018-11-05T09:45:27.277Z,11.60
2018-11-05T09:47:55.596Z,11.70
2018-11-05T09:50:23.907Z,11.70
2018-11-05T09:52:52.198Z,11.70
2018-11-05T09:55:20.512Z,11.70
2018-11-05T09:57:49.728Z,11.70
2018-11-05T10:00:21.262Z,11.70
2018-11-05T10:02:55.033Z,11.80
2018-11-05T10:05:23.214Z,11.80
2018-11-05T10:07:51.501Z,11.80
2018-11-05T10:10:19.855Z,11.80
2018-11-05T10:12:48.117Z,11.90
2018-11-05T10:15:17.455Z,11.90
2018-11-05T10:17:45.741Z,12.00
2018-11-05T10:20:17.072Z,12.10
2018-11-05T10:22:45.812Z,12.20
2018-11-05T10:25:14.595Z,12.40
2018-11-05T10:27:42.819Z,12.40
2018-11-05T10:30:13.674Z,12.50
2018-11-05T10:32:42.417Z,12.50
2018-11-05T10:35:11.136Z,12.50
2018-11-05T10:37:39.539Z,12.40
2018-11-05T10:40:10.014Z,12.40
2018-11-05T10:42:38.292Z,12.40
2018-11-05T10:45:07.645Z,12.40
2018-11-05T10:47:36.668Z,12.40
2018-11-05T10:50:05.692Z,12.40
2018-11-05T10:52:34.077Z,12.40
2018-11-05T10:55:02.409Z,12.50
2018-11-05T10:57:30.841Z,12.60
2018-11-05T10:59:59.169Z,12.60
2018-11-05T11:02:32.715Z,12.70
2018-11-05T11:05:00.980Z,12.80
2018-11-05T11:07:29.275Z,12.90
2018-11-05T11:09:57.669Z,12.90
2018-11-05T11:12:25.944Z,13.00
2018-11-05T11:14:54.258Z,13.10
2018-11-05T11:17:22.809Z,13.10
2018-11-05T11:19:51.117Z,13.10
2018-11-05T11:22:20.272Z,13.10
2018-11-05T11:24:48.580Z,13.20
2018-11-05T11:27:16.870Z,13.20
2018-11-05T11:29:45.580Z,13.10
2018-11-05T11:32:13.913Z,13.10
2018-11-05T11:34:42.364Z,13.20
2018-11-05T11:37:10.801Z,13.30
2018-11-05T11:39:39.153Z,13.40
2018-11-05T11:42:07.506Z,13.40
2018-11-05T11:44:35.856Z,13.30
2018-11-05T11:47:04.213Z,13.20
2018-11-05T11:49:32.506Z,13.20
2018-11-05T11:52:00.899Z,13.20
2018-11-05T11:54:29.337Z,13.20
2018-11-05T11:56:58.071Z,13.20
2018-11-05T11:59:26.630Z,13.20
2018-11-05T12:02:00.515Z,13.30
2018-11-05T12:04:28.949Z,13.30
2018-11-05T12:06:57.264Z,13.40
2018-11-05T12:09:26.548Z,13.50
2018-11-05T12:11:54.829Z,13.60
2018-11-05T12:14:23.578Z,13.80
2018-11-05T12:16:51.850Z,13.80
2018-11-05T12:19:20.162Z,13.90
2018-11-05T12:21:48.501Z,14.00
2018-11-05T12:24:17.209Z,14.10
2018-11-05T12:26:45.611Z,14.10
2018-11-05T12:29:13.952Z,14.20
2018-11-05T12:31:42.391Z,14.30
2018-11-05T12:34:10.705Z,14.20
2018-11-05T12:36:39.063Z,14.40
2018-11-05T12:39:08.735Z,14.50
2018-11-05T12:41:37.063Z,14.40
2018-11-05T12:44:05.832Z,14.40
2018-11-05T12:46:34.158Z,14.70
2018-11-05T12:49:02.613Z,14.80
2018-11-05T12:51:30.970Z,14.80
2018-11-05T12:53:59.285Z,15.00
2018-11-05T12:56:27.630Z,15.00
2018-11-05T12:58:55.969Z,15.00
2018-11-05T13:01:24.375Z,14.90
2018-11-05T13:03:52.695Z,14.90
2018-11-05T13:06:21.074Z,14.70
2018-11-05T13:08:49.439Z,14.80
2018-11-05T13:11:17.853Z,14.80
2018-11-05T13:13:46.265Z,14.70
2018-11-05T13:16:14.986Z,14.70
2018-11-05T13:18:43.634Z,14.60
2018-11-05T13:21:12.201Z,14.50
2018-11-05T13:23:45.668Z,14.70
2018-11-05T13:26:14.993Z,14.80
2018-11-05T13:28:44.137Z,15.00
2018-11-05T13:31:12.810Z,15.20
2018-11-05T13:33:41.232Z,15.50
2018-11-05T13:36:09.657Z,15.70
2018-11-05T13:38:38.420Z,15.70
2018-11-05T13:41:06.455Z,15.70
2018-11-05T13:43:34.821Z,15.80
2018-11-05T13:46:03.676Z,15.80
2018-11-05T13:48:32.522Z,15.80
2018-11-05T13:51:00.652Z,15.70
2018-11-05T13:53:29.061Z,15.50
2018-11-05T13:55:57.409Z,15.40
2018-11-05T13:58:25.779Z,15.30
2018-11-05T14:00:54.193Z,15.10
2018-11-05T14:03:22.513Z,15.00
2018-11-05T14:05:51.548Z,15.00
2018-11-05T14:08:20.098Z,15.00
2018-11-05T14:10:48.462Z,15.00
2018-11-05T14:13:16.998Z,14.90
2018-11-05T14:15:45.523Z,14.90
2018-11-05T14:18:14.503Z,14.90
2018-11-05T14:20:42.943Z,14.90
2018-11-05T14:23:11.378Z,15.00
2018-11-05T14:25:39.901Z,15.00
2018-11-05T14:28:08.567Z,14.90
2018-11-05T14:30:36.616Z,14.80
2018-11-05T14:33:04.973Z,14.70
2018-11-05T14:35:33.294Z,14.70
2018-11-05T14:38:01.668Z,14.70
2018-11-05T14:40:30.082Z,14.70
2018-11-05T14:43:00.136Z,14.70
2018-11-05T14:45:28.811Z,14.70
2018-11-05T14:47:57.165Z,14.70
2018-11-05T14:50:25.893Z,14.70
2018-11-05T14:52:54.290Z,14.60
2018-11-05T14:55:22.613Z,14.50
2018-11-05T14:57:51.784Z,14.40
2018-11-05T15:00:23.998Z,14.30
2018-11-05T15:02:52.432Z,14.20
2018-11-05T15:05:20.738Z,14.20
2018-11-05T15:07:50.109Z,14.00
2018-11-05T15:10:19.845Z,14.00
2018-11-05T15:12:48.500Z,13.90
2018-11-05T15:15:17.702Z,13.80
2018-11-05T15:17:46.432Z,13.80
2018-11-05T15:20:16.304Z,13.70
2018-11-05T15:22:44.377Z,13.60
2018-11-05T15:25:13.302Z,13.50
2018-11-05T15:27:41.761Z,13.50
2018-11-05T15:30:11.577Z,13.40
2018-11-05T15:32:40.729Z,13.30
2018-11-05T15:35:10.085Z,13.20
2018-11-05T15:37:39.275Z,13.10
2018-11-05T15:40:08.615Z,13.00
2018-11-05T15:42:37.052Z,12.90
2018-11-05T15:45:06.473Z,12.80
2018-11-05T15:47:34.824Z,12.70
2018-11-05T15:50:03.611Z,12.70
2018-11-05T15:52:32.384Z,12.60
2018-11-05T15:55:00.495Z,12.50
2018-11-05T15:57:28.996Z,12.40
2018-11-05T15:59:57.555Z,12.30
2018-11-05T16:02:25.906Z,12.20
2018-11-05T16:04:54.238Z,12.20
2018-11-05T16:07:22.557Z,12.10
2018-11-05T16:09:50.875Z,12.10
2018-11-05T16:12:19.305Z,12.00
2018-11-05T16:14:47.708Z,12.00
2018-11-05T16:17:16.081Z,11.90
2018-11-05T16:19:44.416Z,11.80
2018-11-05T16:22:12.967Z,11.80
2018-11-05T16:24:41.353Z,11.70
2018-11-05T16:27:09.705Z,11.60
2018-11-05T16:29:38.079Z,11.50
2018-11-05T16:32:06.518Z,11.40
2018-11-05T16:34:34.971Z,11.40
2018-11-05T16:37:03.499Z,11.30
2018-11-05T16:39:31.860Z,11.30
2018-11-05T16:42:00.404Z,11.30
2018-11-05T16:44:28.807Z,11.20
2018-11-05T16:46:57.221Z,11.20
2018-11-05T16:49:25.864Z,11.10
2018-11-05T16:51:55.132Z,11.10
2018-11-05T16:54:23.487Z,11.00
2018-11-05T16:56:51.768Z,11.00
2018-11-05T16:59:20.069Z,11.00
2018-11-05T17:01:49.047Z,10.90
2018-11-05T17:04:17.074Z,10.90
2018-11-05T17:06:45.832Z,10.90
2018-11-05T17:09:14.217Z,10.80
2018-11-05T17:11:43.041Z,10.80
2018-11-05T17:14:11.389Z,10.70
2018-11-05T17:16:40.354Z,10.70
2018-11-05T17:19:09.175Z,10.60
2018-11-05T17:21:38.064Z,10.50
2018-11-05T17:24:07.107Z,10.50
2018-11-05T17:26:35.948Z,10.40
2018-11-05T17:29:05.216Z,10.30
2018-11-05T17:31:34.183Z,10.30
2018-11-05T17:34:03.254Z,10.20
2018-11-05T17:36:32.309Z,10.10
2018-11-05T17:39:01.198Z,10.10
2018-11-05T17:41:30.146Z,10.00
2018-11-05T17:43:59.004Z,9.90
2018-11-05T17:46:27.914Z,9.90
2018-11-05T17:48:56.749Z,9.80
2018-11-05T17:51:25.779Z,9.80
2018-11-05T17:53:54.802Z,9.70
2018-11-05T17:56:23.910Z,9.60
2018-11-05T17:58:52.725Z,9.60
2018-11-05T18:01:21.657Z,9.50
2018-11-05T18:03:50.727Z,9.40
2018-11-05T18:06:19.835Z,9.40
2018-11-05T18:08:48.720Z,9.30
2018-11-05T18:11:17.921Z,9.20
2018-11-05T18:13:47.594Z,9.10
2018-11-05T18:16:17.211Z,9.10
2018-11-05T18:18:46.137Z,9.00
2018-11-05T18:21:14.999Z,8.90
2018-11-05T18:23:43.734Z,8.90
2018-11-05T18:26:13.039Z,8.80
2018-11-05T18:28:41.633Z,8.70
2018-11-05T18:31:10.732Z,8.70
2018-11-05T18:33:39.692Z,8.70
2018-11-05T18:36:08.712Z,8.60
2018-11-05T18:38:37.513Z,8.60
2018-11-05T18:41:06.849Z,8.50
2018-11-05T18:43:35.859Z,8.40
2018-11-05T18:46:04.615Z,8.40
2018-11-05T18:48:32.943Z,8.30
2018-11-05T18:51:01.251Z,8.30
2018-11-05T18:53:29.674Z,8.20
2018-11-05T18:55:58.003Z,8.20
2018-11-05T18:58:26.687Z,8.20
2018-11-05T19:00:55.110Z,8.10
2018-11-05T19:03:23.485Z,8.10
2018-11-05T19:05:51.832Z,8.10
2018-11-05T19:08:20.306Z,8.00
2018-11-05T19:10:48.577Z,8.00
2018-11-05T19:13:16.883Z,7.90
2018-11-05T19:15:45.279Z,7.90
2018-11-05T19:18:13.580Z,7.80
2018-11-05T19:20:41.865Z,7.80
2018-11-05T19:23:10.278Z,7.70
2018-11-05T19:25:38.520Z,7.70
2018-11-05T19:28:06.898Z,7.60
2018-11-05T19:30:35.271Z,7.60
2018-11-05T19:33:03.526Z,7.50
2018-11-05T19:35:31.797Z,7.50
2018-11-05T19:38:00.119Z,7.40
2018-11-05T19:40:28.440Z,7.40
2018-11-05T19:42:56.758Z,7.40
2018-11-05T19:45:25.169Z,7.30
2018-11-05T19:47:53.528Z,7.40
2018-11-05T19:50:23.978Z,7.40
2018-11-05T19:52:52.949Z,7.40
2018-11-05T19:55:21.636Z,7.30
2018-11-05T19:57:50.700Z,7.30
2018-11-05T20:00:23.455Z,7.30
2018-11-05T20:02:52.106Z,7.20
2018-11-05T20:05:20.541Z,7.20
2018-11-05T20:07:49.639Z,7.20
2018-11-05T20:10:18.060Z,7.10
2018-11-05T20:12:46.702Z,7.10
2018-11-05T20:15:15.256Z,7.10
2018-11-05T20:17:44.337Z,7.10
2018-11-05T20:20:16.787Z,7.10
2018-11-05T20:22:45.219Z,7.00
2018-11-05T20:25:13.628Z,7.00
2018-11-05T20:27:42.321Z,7.00
2018-11-05T20:30:13.197Z,6.90
2018-11-05T20:32:41.954Z,6.90
2018-11-05T20:35:10.046Z,6.90
2018-11-05T20:37:38.541Z,6.90
2018-11-05T20:40:08.502Z,6.80
2018-11-05T20:42:36.721Z,6.80
2018-11-05T20:45:05.069Z,6.80
2018-11-05T20:47:33.425Z,6.80
2018-11-05T20:50:01.814Z,6.80
2018-11-05T20:52:30.259Z,6.90
2018-11-05T20:54:58.544Z,6.90
2018-11-05T20:57:26.891Z,6.90
2018-11-05T20:59:55.318Z,6.90
2018-11-05T21:02:23.593Z,6.90
2018-11-05T21:04:51.885Z,6.90
2018-11-05T21:07:20.308Z,6.90
2018-11-05T21:09:48.653Z,6.80
2018-11-05T21:12:16.955Z,6.80
2018-11-05T21:14:45.297Z,6.80
2018-11-05T21:17:13.605Z,6.70
2018-11-05T21:19:42.012Z,6.70
2018-11-05T21:22:12.013Z,6.70
2018-11-05T21:24:40.210Z,6.60
2018-11-05T21:27:08.619Z,6.60
2018-11-05T21:29:36.812Z,6.60
2018-11-05T21:32:05.242Z,6.50
2018-11-05T21:34:33.558Z,6.50
2018-11-05T21:37:01.836Z,6.50
2018-11-05T21:39:30.148Z,6.50
2018-11-05T21:41:58.473Z,6.50
2018-11-05T21:44:26.749Z,6.40
2018-11-05T21:46:55.072Z,6.40
2018-11-05T21:49:23.352Z,6.30
2018-11-05T21:51:51.621Z,6.30
2018-11-05T21:54:19.915Z,6.30
2018-11-05T21:56:48.302Z,6.30
2018-11-05T21:59:16.689Z,6.30
2018-11-05T22:01:44.951Z,6.30
2018-11-05T22:04:13.264Z,6.30
2018-11-05T22:06:41.589Z,6.30
2018-11-05T22:09:12.141Z,6.30
2018-11-05T22:11:40.463Z,6.30
2018-11-05T22:14:08.760Z,6.30
2018-11-05T22:16:37.025Z,6.30
2018-11-05T22:19:05.476Z,6.30
2018-11-05T22:21:33.772Z,6.30
2018-11-05T22:24:02.065Z,6.30
2018-11-05T22:26:30.381Z,6.30
2018-11-05T22:28:58.746Z,6.30
2018-11-05T22:31:27.216Z,6.30
2018-11-05T22:33:55.597Z,6.30
2018-11-05T22:36:23.896Z,6.30
2018-11-05T22:38:52.179Z,6.30
2018-11-05T22:41:20.480Z,6.30
2018-11-05T22:43:48.885Z,6.30
2018-11-05T22:46:17.184Z,6.30
2018-11-05T22:48:45.480Z,6.30
2018-11-05T22:51:13.786Z,6.30
2018-11-05T22:53:42.077Z,6.40
2018-11-05T22:56:10.422Z,6.40
2018-11-05T22:58:38.680Z,6.40
2018-11-05T23:01:08.216Z,6.40
2018-11-05T23:03:36.577Z,6.40
2018-11-05T23:06:04.910Z,6.40
2018-11-05T23:08:33.179Z,6.40
2018-11-05T23:11:01.485Z,6.40
2018-11-05T23:13:29.763Z,6.40
2018-11-05T23:15:58.108Z,6.30
2018-11-05T23:18:26.385Z,6.40
2018-11-05T23:20:55.328Z,6.30
2018-11-05T23:23:23.604Z,6.30
2018-11-05T23:25:51.924Z,6.30
2018-11-05T23:28:20.249Z,6.30
2018-11-05T23:30:48.659Z,6.30
2018-11-05T23:33:17.016Z,6.30
2018-11-05T23:35:45.290Z,6.30
2018-11-05T23:38:13.675Z,6.30
2018-11-05T23:40:41.959Z,6.30
2018-11-05T23:43:10.241Z,6.30
2018-11-05T23:45:39.150Z,6.30
2018-11-05T23:48:07.412Z,6.20
2018-11-05T23:50:35.688Z,6.20
2018-11-05T23:53:04.000Z,6.20
2018-11-05T23:55:32.290Z,6.10
2018-11-05T23:58:00.593Z,6.10
